Time;durP1;ratioP1;P1;durP2;ratioP2;P2;SDS_P1;SDS_P2;PMS_P1;PMS_P2;Temp;Humidity;BMP_temperature;BMP_pressure;BME280_temperature;BME280_humidity;BME280_pressure;Samples;Min_cycle;Max_cycle;Signal;HPM_P1;HPM_P2
2022/07/12 00:01:23;;;;;;;8.30;4.38;;;;;;;20.68;62.51;99230.09;4961078;28;20046;-78
2022/07/12 00:03:49;;;;;;;5.85;3.92;;;;;;;20.72;63.02;99233.41;4961863;28;20093;-79
2022/07/12 00:06:15;;;;;;;11.25;4.40;;;;;;;20.66;62.93;99231.97;4962804;28;20046;-77
2022/07/12 00:08:42;;;;;;;5.72;4.20;;;;;;;20.69;62.82;99230.97;4965598;28;20042;-76
2022/07/12 00:11:09;;;;;;;4.82;3.97;;;;;;;20.67;63.26;99224.91;4961191;28;20038;-79
2022/07/12 00:13:35;;;;;;;6.18;4.32;;;;;;;20.69;63.40;99237.06;4961365;28;20039;-77
2022/07/12 00:16:02;;;;;;;5.30;4.30;;;;;;;20.70;63.78;99240.59;4950621;28;20039;-78
2022/07/12 00:18:29;;;;;;;6.10;4.40;;;;;;;20.69;63.60;99234.44;4948863;28;20054;-79
2022/07/12 00:20:55;;;;;;;9.52;4.43;;;;;;;20.54;63.28;99212.41;4944665;28;20050;-79
2022/07/12 00:23:21;;;;;;;4.65;4.13;;;;;;;20.59;63.58;99246.50;4959922;28;20038;-76
2022/07/12 00:25:48;;;;;;;7.13;4.38;;;;;;;20.47;63.51;99230.44;4944812;28;20047;-76
2022/07/12 00:28:15;;;;;;;6.00;4.35;;;;;;;20.46;64.27;99230.53;4962336;28;20039;-78
2022/07/12 00:30:41;;;;;;;6.28;4.30;;;;;;;20.49;64.10;99230.34;4962846;28;20058;-78
2022/07/12 00:33:08;;;;;;;5.22;4.15;;;;;;;20.49;63.92;99237.41;4962215;28;20039;-80
2022/07/12 00:35:34;;;;;;;4.85;4.20;;;;;;;20.46;64.48;99227.88;4971130;28;20059;-76
2022/07/12 00:38:00;;;;;;;6.65;4.00;;;;;;;20.38;64.37;99211.63;4964039;28;20097;-76
2022/07/12 00:40:26;;;;;;;6.20;4.57;;;;;;;20.51;64.46;99233.75;4951793;28;20051;-77
2022/07/12 00:42:52;;;;;;;7.00;4.68;;;;;;;20.45;64.69;99216.44;4965846;28;20049;-79
2022/07/12 00:45:20;;;;;;;6.65;4.43;;;;;;;20.46;64.79;99190.91;4968182;28;20059;-78
2022/07/12 00:47:46;;;;;;;5.07;4.03;;;;;;;20.50;64.82;99199.47;4964550;28;20157;-79
2022/07/12 00:50:16;;;;;;;6.88;4.32;;;;;;;20.45;64.48;99178.63;4966869;28;20079;-77
2022/07/12 00:52:43;;;;;;;7.13;4.07;;;;;;;20.46;64.82;99173.25;4969670;28;20043;-76
2022/07/12 00:55:11;;;;;;;5.70;4.35;;;;;;;20.41;65.03;99164.72;4966400;28;20042;-77
2022/07/12 00:57:39;;;;;;;8.63;4.63;;;;;;;20.44;64.91;99169.84;4953083;28;20049;-78
2022/07/12 01:00:09;;;;;;;6.35;4.90;;;;;;;20.49;65.03;99169.59;4965842;28;20050;-77
2022/07/12 01:02:36;;;;;;;4.70;4.30;;;;;;;20.48;64.49;99173.16;4967165;28;20146;-76
2022/07/12 01:05:05;;;;;;;8.02;4.97;;;;;;;20.47;65.20;99179.38;4964358;28;20042;-78
2022/07/12 01:07:32;;;;;;;4.25;3.85;;;;;;;20.41;65.27;99177.09;4962955;28;20545;-78
2022/07/12 01:09:59;;;;;;;6.45;3.92;;;;;;;20.41;64.89;99177.09;4963108;28;20058;-77
2022/07/12 01:12:25;;;;;;;5.43;3.70;;;;;;;20.35;64.81;99178.31;4968002;28;20141;-79
2022/07/12 01:14:53;;;;;;;4.93;4.00;;;;;;;20.41;65.25;99185.88;4935100;28;20105;-79
2022/07/12 01:17:26;;;;;;;5.25;3.92;;;;;;;20.41;64.77;99180.59;4964332;28;20081;-78
2022/07/12 01:19:54;;;;;;;6.32;3.95;;;;;;;20.41;65.11;99171.81;4979740;28;20078;-79
2022/07/12 01:22:27;;;;;;;4.40;3.97;;;;;;;20.41;64.95;99166.53;4946967;28;20078;-77
2022/07/12 01:24:53;;;;;;;6.63;4.25;;;;;;;20.40;65.19;99144.56;4951935;28;20047;-77
2022/07/12 01:27:20;;;;;;;5.05;4.30;;;;;;;20.36;65.12;99135.13;4965076;28;20074;-77
2022/07/12 01:29:46;;;;;;;4.95;4.45;;;;;;;20.45;65.18;99126.63;4967930;28;20046;-77
2022/07/12 01:32:25;;;;;;;4.95;4.43;;;;;;;20.47;65.15;99124.75;4951347;28;20117;-77
2022/07/12 01:35:03;;;;;;;5.47;4.78;;;;;;;20.49;64.99;99118.50;4964930;28;20450;-78
2022/07/12 01:37:38;;;;;;;5.95;4.55;;;;;;;20.50;64.60;99123.72;4961950;28;20054;-79
2022/07/12 01:40:06;;;;;;;6.45;4.97;;;;;;;20.49;64.97;99123.81;4965452;28;20133;-79
2022/07/12 01:42:33;;;;;;;6.05;4.82;;;;;;;20.49;64.72;99110.59;4962613;28;20035;-78
2022/07/12 01:45:00;;;;;;;6.25;5.43;;;;;;;20.56;64.57;99128.59;4958031;28;20047;-78
2022/07/12 01:47:29;;;;;;;6.85;5.45;;;;;;;20.57;64.86;99125.03;4968054;28;20104;-77
2022/07/12 01:49:55;;;;;;;6.40;5.07;;;;;;;20.57;64.83;99118.91;4949456;28;20058;-78
2022/07/12 01:52:22;;;;;;;8.18;4.97;;;;;;;20.50;64.97;99101.72;4963282;28;20521;-78
2022/07/12 01:54:49;;;;;;;6.07;4.97;;;;;;;20.61;65.12;99101.91;4964885;28;20507;-78
2022/07/12 01:57:15;;;;;;;6.55;4.80;;;;;;;20.64;65.17;99106.16;4965374;28;20045;-77
2022/07/12 01:59:43;;;;;;;5.50;4.97;;;;;;;20.57;64.57;99084.56;4964059;28;20042;-77
2022/07/12 02:02:09;;;;;;;7.07;5.43;;;;;;;20.56;64.91;99077.56;4965378;28;20081;-77
2022/07/12 02:04:36;;;;;;;6.00;5.28;;;;;;;20.56;65.11;99085.50;4969458;28;20550;-77
2022/07/12 02:07:04;;;;;;;8.50;5.45;;;;;;;20.61;65.09;99094.00;4966136;28;20046;-76
2022/07/12 02:09:30;;;;;;;8.23;5.40;;;;;;;20.65;64.97;99081.44;4968815;28;20059;-76
2022/07/12 02:11:56;;;;;;;7.00;5.72;;;;;;;20.62;64.80;99071.91;4971922;28;20141;-77
2022/07/12 02:14:23;;;;;;;6.55;5.25;;;;;;;20.64;65.14;99061.22;4965327;28;20090;-77
2022/07/12 02:16:49;;;;;;;6.40;5.65;;;;;;;20.69;65.15;99078.50;4963799;28;20047;-78
2022/07/12 02:19:16;;;;;;;7.18;5.43;;;;;;;20.68;65.24;99071.50;4953481;28;20194;-77
2022/07/12 02:21:42;;;;;;;7.30;5.35;;;;;;;20.61;65.07;99071.03;4951576;28;20142;-78
2022/07/12 02:24:09;;;;;;;6.22;5.50;;;;;;;20.66;65.14;99070.75;4964386;28;20554;-76
2022/07/12 02:26:36;;;;;;;7.40;6.00;;;;;;;20.58;64.70;99065.94;4967891;28;20042;-77
2022/07/12 02:29:06;;;;;;;10.68;6.35;;;;;;;20.65;65.30;99071.69;4971509;28;20077;-79
2022/07/12 02:31:33;;;;;;;11.90;5.90;;;;;;;20.74;65.13;99080.88;4972240;28;20137;-77
2022/07/12 02:34:01;;;;;;;6.35;5.35;;;;;;;20.72;65.19;99083.59;4972945;28;20039;-76
2022/07/12 02:36:27;;;;;;;8.02;5.20;;;;;;;20.73;65.35;99068.59;4963218;28;20043;-77
2022/07/12 02:38:54;;;;;;;7.05;5.07;;;;;;;20.76;65.40;99094.84;4990495;28;20043;-78
2022/07/12 02:41:21;;;;;;;5.63;5.00;;;;;;;20.76;65.03;99097.47;4989150;28;20102;-76
2022/07/12 02:43:47;;;;;;;6.68;5.22;;;;;;;20.77;65.12;99097.41;4988630;28;20069;-77
2022/07/12 02:46:13;;;;;;;6.82;5.25;;;;;;;20.73;64.73;99095.88;5004519;28;20047;-78
2022/07/12 02:48:40;;;;;;;6.13;5.07;;;;;;;20.73;64.71;99095.03;4984480;28;20022;-79
2022/07/12 02:51:07;;;;;;;6.65;5.43;;;;;;;20.70;64.84;99101.34;4963444;28;20096;-79
2022/07/12 02:53:35;;;;;;;7.30;4.75;;;;;;;20.67;64.90;99090.94;4964558;28;20522;-79
2022/07/12 02:56:01;;;;;;;8.43;5.28;;;;;;;20.66;65.19;99099.81;4964722;28;20049;-78
2022/07/12 02:58:28;;;;;;;8.88;5.47;;;;;;;20.57;64.81;99085.38;4963451;28;20038;-77
2022/07/12 03:00:54;;;;;;;11.40;5.88;;;;;;;20.65;64.85;99081.44;4963097;28;20054;-78
2022/07/12 03:03:21;;;;;;;7.53;5.53;;;;;;;20.60;65.19;99066.69;4962565;28;20042;-78
2022/07/12 03:05:47;;;;;;;5.97;5.25;;;;;;;20.70;64.97;99088.13;4965814;28;20545;-77
2022/07/12 03:08:14;;;;;;;6.53;5.63;;;;;;;20.73;65.10;99085.28;4979786;28;20262;-78
2022/07/12 03:10:40;;;;;;;7.72;5.30;;;;;;;20.76;64.67;99101.00;4960431;28;20050;-75
2022/07/12 03:13:07;;;;;;;6.55;5.78;;;;;;;20.77;65.21;99096.53;4961175;28;20038;-76
2022/07/12 03:15:33;;;;;;;8.25;5.40;;;;;;;20.80;65.07;99092.88;4960880;28;20038;-78
2022/07/12 03:18:01;;;;;;;7.95;5.35;;;;;;;20.79;65.44;99094.66;4951729;28;20133;-78
2022/07/12 03:20:28;;;;;;;6.55;5.47;;;;;;;20.94;64.88;99106.06;4952287;28;20042;-77
2022/07/12 03:22:55;;;;;;;8.73;5.15;;;;;;;21.10;64.51;99105.09;4983115;28;20050;-78
2022/07/12 03:25:21;;;;;;;8.07;5.72;;;;;;;21.16;64.60;99099.41;4963892;28;20046;-78
2022/07/12 03:27:48;;;;;;;9.07;5.80;;;;;;;21.23;64.59;99103.38;4964410;28;20434;-76
2022/07/12 03:30:15;;;;;;;9.80;5.50;;;;;;;21.26;64.19;99094.38;4981931;28;20054;-78
2022/07/12 03:32:42;;;;;;;8.90;5.80;;;;;;;21.26;63.58;99092.59;4966519;28;20041;-80
2022/07/12 03:35:08;;;;;;;9.23;5.90;;;;;;;21.29;63.71;99088.91;4982361;28;20038;-79
2022/07/12 03:37:45;;;;;;;10.02;5.88;;;;;;;21.34;63.87;99086.81;4966985;28;20042;-79
2022/07/12 03:40:13;;;;;;;13.77;6.10;;;;;;;21.37;63.58;99087.44;4982446;28;20046;-79
2022/07/12 03:42:40;;;;;;;10.13;7.00;;;;;;;21.35;63.62;99062.88;4963849;28;20506;-79
2022/07/12 03:45:07;;;;;;;8.35;6.20;;;;;;;21.56;63.63;99078.28;4973145;28;20096;-77
2022/07/12 03:47:37;;;;;;;12.95;6.20;;;;;;;21.57;63.22;99082.63;4970917;28;20057;-81
2022/07/12 03:50:07;;;;;;;10.05;6.10;;;;;;;21.55;63.08;99076.59;4964573;28;20141;-79
2022/07/12 03:52:34;;;;;;;9.23;5.95;;;;;;;21.60;62.99;99081.59;4969613;28;20069;-80
2022/07/12 03:55:02;;;;;;;8.95;5.82;;;;;;;21.81;62.81;99101.38;4969769;28;20038;-79
2022/07/12 03:57:32;;;;;;;7.32;5.38;;;;;;;21.91;62.52;99103.41;4976304;28;20046;-78
2022/07/12 03:59:58;;;;;;;6.22;5.63;;;;;;;21.92;62.39;99094.50;4985077;28;20043;-77
2022/07/12 04:02:25;;;;;;;6.63;5.82;;;;;;;21.94;62.37;99093.47;4972568;28;20050;-81
2022/07/12 04:04:51;;;;;;;11.60;5.80;;;;;;;22.02;62.25;99089.44;4983106;28;20571;-79
2022/07/12 04:07:18;;;;;;;7.63;5.63;;;;;;;22.03;62.21;99096.44;4966483;28;20124;-78
2022/07/12 04:09:44;;;;;;;9.98;5.50;;;;;;;22.09;61.26;99118.03;4936023;28;20184;-79
2022/07/12 04:12:11;;;;;;;9.55;6.10;;;;;;;22.11;61.48;99104.72;4985206;28;20506;-80
2022/07/12 04:14:37;;;;;;;12.25;5.72;;;;;;;22.03;61.77;99085.84;4988799;28;20069;-78
2022/07/12 04:17:05;;;;;;;12.82;5.97;;;;;;;22.13;61.66;99097.50;4972172;28;20050;-81
2022/07/12 04:19:32;;;;;;;9.50;6.30;;;;;;;22.17;61.68;99093.72;4957624;28;20054;-82
2022/07/12 04:21:59;;;;;;;10.65;6.40;;;;;;;22.16;61.64;99088.50;4969762;28;20130;-78
2022/07/12 04:24:26;;;;;;;10.35;6.75;;;;;;;22.16;61.35;99084.06;4987026;28;20057;-81
2022/07/12 04:26:53;;;;;;;10.73;6.50;;;;;;;22.16;61.02;99089.38;4956417;28;20054;-79
2022/07/12 04:29:20;;;;;;;10.18;6.15;;;;;;;22.16;61.18;99104.41;4966770;28;20050;-78
2022/07/12 04:31:46;;;;;;;10.60;6.00;;;;;;;22.14;61.04;99104.50;4952860;28;20781;-78
2022/07/12 04:34:16;;;;;;;7.32;5.68;;;;;;;22.17;61.12;99101.66;4968003;28;20039;-78
2022/07/12 04:36:47;;;;;;;8.63;5.60;;;;;;;22.34;61.12;99105.78;4968041;28;20149;-79
2022/07/12 04:39:14;;;;;;;11.48;5.50;;;;;;;22.37;61.00;99100.28;4968889;28;20041;-77
2022/07/12 04:41:40;;;;;;;8.55;4.78;;;;;;;22.51;60.36;99111.78;4968358;28;20057;-77
2022/07/12 04:44:07;;;;;;;7.95;5.45;;;;;;;22.60;60.34;99111.09;4985194;28;20046;-80
2022/07/12 04:46:33;;;;;;;8.48;5.43;;;;;;;22.61;59.90;99106.66;4984598;28;20077;-78
2022/07/12 04:49:00;;;;;;;6.82;5.50;;;;;;;22.60;59.87;99104.97;4954490;28;20451;-78
2022/07/12 04:51:27;;;;;;;9.07;6.03;;;;;;;22.55;60.01;99102.63;4985982;28;20062;-79
2022/07/12 04:53:53;;;;;;;7.38;5.30;;;;;;;22.66;59.68;99112.47;4987116;28;20034;-80
2022/07/12 04:56:19;;;;;;;9.23;5.32;;;;;;;22.68;59.89;99118.50;4968187;28;20039;-80
2022/07/12 04:58:45;;;;;;;7.13;5.63;;;;;;;22.59;59.44;99105.94;4985297;28;20532;-80
2022/07/12 05:01:12;;;;;;;9.82;5.55;;;;;;;22.53;59.23;99120.44;4982041;28;20509;-79
2022/07/12 05:03:40;;;;;;;6.68;4.90;;;;;;;22.43;59.62;99112.28;4986680;28;20074;-79
2022/07/12 05:06:06;;;;;;;7.32;5.43;;;;;;;22.33;59.69;99112.03;4967741;28;20050;-79
2022/07/12 05:08:34;;;;;;;6.60;5.28;;;;;;;22.31;59.73;99116.59;4969511;28;20038;-84
2022/07/12 05:11:01;;;;;;;9.45;4.93;;;;;;;22.32;59.72;99122.75;4984678;28;20454;-77
2022/07/12 05:13:27;;;;;;;7.50;5.15;;;;;;;22.32;59.81;99120.94;4985415;28;20034;-77
2022/07/12 05:15:53;;;;;;;8.02;5.20;;;;;;;22.37;59.99;99131.25;4957938;28;20049;-80
2022/07/12 05:18:19;;;;;;;7.40;4.70;;;;;;;22.40;59.73;99118.63;4977510;28;20050;-77
2022/07/12 05:20:45;;;;;;;7.43;5.28;;;;;;;22.50;59.39;99128.63;5002341;28;20528;-79
2022/07/12 05:23:11;;;;;;;7.95;5.05;;;;;;;22.51;59.54;99123.19;4962241;28;20185;-80
2022/07/12 05:25:37;;;;;;;9.18;4.85;;;;;;;22.50;59.19;99121.50;4962584;28;20494;-79
2022/07/12 05:28:03;;;;;;;5.68;5.07;;;;;;;22.61;58.85;99130.53;4984716;28;20041;-80
2022/07/12 05:30:30;;;;;;;7.18;4.82;;;;;;;22.58;58.85;99122.78;4965182;28;20046;-77
2022/07/12 05:32:56;;;;;;;5.78;4.97;;;;;;;22.63;58.69;99108.25;4962978;28;20506;-79
2022/07/12 05:35:22;;;;;;;7.88;5.20;;;;;;;22.84;58.33;99128.91;4997446;28;20042;-78
2022/07/12 05:37:48;;;;;;;11.45;6.00;;;;;;;22.90;57.89;99130.25;4974143;28;20049;-79
2022/07/12 05:40:15;;;;;;;6.15;4.70;;;;;;;22.91;57.54;99131.97;5006599;28;20133;-80
2022/07/12 05:42:41;;;;;;;7.53;4.85;;;;;;;22.93;57.50;99128.25;4968952;28;20034;-80
2022/07/12 05:45:08;;;;;;;8.93;5.03;;;;;;;22.91;57.30;99132.81;5000029;28;20061;-81
2022/07/12 05:47:34;;;;;;;10.23;4.65;;;;;;;22.99;56.99;99133.09;4981648;28;20057;-79
2022/07/12 05:50:05;;;;;;;8.35;4.88;;;;;;;23.11;56.97;99131.38;4977477;28;20054;-77
2022/07/12 05:55:16;;;;;;;8.05;4.90;;;;;;;23.39;56.54;99140.03;4978784;28;20074;-79
2022/07/12 05:57:45;;;;;;;6.43;4.75;;;;;;;23.36;56.58;99129.63;4994623;28;20042;-79
2022/07/12 06:00:13;;;;;;;11.98;4.82;;;;;;;23.30;56.38;99114.16;4958298;28;20494;-80
2022/07/12 06:02:41;;;;;;;8.25;5.05;;;;;;;23.40;56.49;99135.56;4980757;28;20034;-82
2022/07/12 06:05:07;;;;;;;11.57;4.95;;;;;;;23.39;56.36;99132.06;4981509;28;20053;-79
2022/07/12 06:07:34;;;;;;;6.70;4.50;;;;;;;23.29;56.26;99139.84;4980935;28;20046;-78
2022/07/12 06:10:01;;;;;;;7.47;4.70;;;;;;;23.23;56.34;99139.47;4975772;28;20058;-79
2022/07/12 06:12:29;;;;;;;9.63;5.07;;;;;;;23.21;56.70;99142.22;4961427;28;20046;-79
2022/07/12 06:14:54;;;;;;;8.82;4.72;;;;;;;23.13;56.49;99124.16;4961486;28;20129;-78
2022/07/12 06:17:22;;;;;;;6.53;4.85;;;;;;;23.28;56.80;99148.78;4980055;28;20046;-79
2022/07/12 06:19:49;;;;;;;8.48;5.40;;;;;;;23.35;56.67;99130.59;4958720;28;20058;-81
2022/07/12 06:22:15;;;;;;;7.03;5.00;;;;;;;23.73;56.19;99131.41;4968293;28;20046;-78
2022/07/12 06:24:41;;;;;;;11.82;5.25;;;;;;;24.18;55.83;99144.00;4983336;28;20046;-79
2022/07/12 06:27:09;;;;;;;7.72;4.82;;;;;;;24.18;54.83;99142.22;4993452;28;20111;-80
2022/07/12 06:29:35;;;;;;;7.38;5.22;;;;;;;24.11;54.57;99148.13;4957081;28;20050;-79
2022/07/12 06:32:01;;;;;;;7.30;4.93;;;;;;;23.92;55.08;99138.84;4968714;28;20086;-79
2022/07/12 06:34:27;;;;;;;8.63;5.05;;;;;;;23.73;55.54;99134.88;4984814;28;20085;-79
2022/07/12 06:36:54;;;;;;;8.40;5.13;;;;;;;23.69;55.43;99160.00;4985600;28;20046;-78
2022/07/12 06:39:20;;;;;;;5.88;4.80;;;;;;;23.44;55.76;99153.84;4966270;28;20046;-78
2022/07/12 06:41:46;;;;;;;8.32;4.90;;;;;;;23.40;56.21;99170.94;4971323;28;20128;-79
2022/07/12 06:44:12;;;;;;;9.85;5.03;;;;;;;23.29;56.57;99157.56;4966917;28;20039;-80
2022/07/12 06:46:38;;;;;;;6.00;4.90;;;;;;;23.33;56.76;99158.22;4981338;28;20133;-79
2022/07/12 06:49:04;;;;;;;8.45;5.13;;;;;;;23.29;56.93;99141.66;4968589;28;20140;-77
2022/07/12 06:51:31;;;;;;;7.93;4.90;;;;;;;23.39;57.01;99150.66;4951662;28;20042;-79
2022/07/12 06:53:57;;;;;;;12.70;5.03;;;;;;;23.37;57.54;99149.09;4964408;28;20050;-78
2022/07/12 06:56:23;;;;;;;5.53;4.75;;;;;;;23.40;57.50;99160.31;4968596;28;20057;-79
2022/07/12 06:58:50;;;;;;;10.57;5.57;;;;;;;23.28;57.35;99153.25;4982317;28;20068;-80
2022/07/12 07:01:17;;;;;;;6.72;5.15;;;;;;;23.15;57.41;99154.09;4981914;28;20038;-80
2022/07/12 07:03:43;;;;;;;8.32;5.43;;;;;;;23.12;57.72;99164.91;4953224;28;20038;-79
2022/07/12 07:06:09;;;;;;;11.25;4.78;;;;;;;22.95;58.21;99152.00;4982788;28;20042;-80
2022/07/12 07:08:36;;;;;;;8.60;5.20;;;;;;;23.06;58.43;99170.66;4965762;28;20053;-77
2022/07/12 07:11:03;;;;;;;7.10;5.53;;;;;;;23.02;58.63;99158.59;4964563;28;20058;-80
2022/07/12 07:13:29;;;;;;;8.45;4.65;;;;;;;23.01;58.18;99178.09;4965020;28;20388;-79
2022/07/12 07:15:55;;;;;;;7.93;4.63;;;;;;;23.09;58.49;99174.91;4964806;28;20146;-78
2022/07/12 07:18:21;;;;;;;7.55;4.18;;;;;;;23.20;58.04;99171.50;4964661;28;20133;-80
2022/07/12 07:20:47;;;;;;;6.53;4.32;;;;;;;23.54;57.60;99175.25;4943381;28;20204;-77
2022/07/12 07:23:16;;;;;;;9.63;4.07;;;;;;;24.09;57.07;99158.00;4984182;28;20045;-83
2022/07/12 07:25:46;;;;;;;6.28;3.95;;;;;;;24.70;56.13;99160.44;4969698;28;20049;-81
2022/07/12 07:28:12;;;;;;;7.75;3.75;;;;;;;26.02;54.54;99150.78;4920998;28;20052;-80
2022/07/12 07:30:53;;;;;;;7.30;3.85;;;;;;;28.10;52.23;99147.88;4966485;28;20070;-81
2022/07/12 07:33:21;;;;;;;5.75;3.22;;;;;;;29.95;48.44;99151.69;4951850;28;20132;-82
2022/07/12 07:35:49;;;;;;;4.50;2.97;;;;;;;30.72;44.70;99116.19;4968836;28;20130;-83
2022/07/12 07:38:17;;;;;;;7.43;3.40;;;;;;;31.68;41.30;99141.00;4981989;28;20133;-82
2022/07/12 07:40:46;;;;;;;5.68;3.03;;;;;;;32.81;40.57;99114.31;4948953;28;20046;-85
2022/07/12 07:43:13;;;;;;;4.72;3.15;;;;;;;32.98;39.15;99145.59;4984487;28;20045;-82
2022/07/12 07:45:39;;;;;;;5.50;3.25;;;;;;;33.38;37.18;99129.41;4984589;28;20061;-83
2022/07/12 07:48:05;;;;;;;4.70;2.97;;;;;;;34.93;36.98;99135.41;4968414;28;20042;-86
2022/07/12 07:50:31;;;;;;;4.60;2.60;;;;;;;35.37;34.36;99119.31;4987370;28;20053;-81
2022/07/12 07:52:58;;;;;;;5.15;2.97;;;;;;;34.62;33.56;99141.88;4967309;28;20502;-83
2022/07/12 07:55:24;;;;;;;5.28;3.30;;;;;;;33.76;35.17;99144.81;4963781;28;20073;-79
2022/07/12 07:57:50;;;;;;;5.15;3.22;;;;;;;33.42;34.53;99157.69;4952064;28;20491;-81
2022/07/12 08:00:16;;;;;;;3.33;3.00;;;;;;;33.76;35.86;99161.84;4982190;28;20054;-77
2022/07/12 08:02:43;;;;;;;3.05;2.80;;;;;;;32.82;35.29;99175.25;4961841;28;20031;-78
2022/07/12 08:05:09;;;;;;;4.20;3.17;;;;;;;31.07;36.20;99182.31;4953722;28;20427;-79
2022/07/12 08:07:35;;;;;;;5.65;3.53;;;;;;;29.59;39.63;99190.06;4949799;28;20038;-77
2022/07/12 08:10:01;;;;;;;3.65;3.30;;;;;;;28.69;41.43;99180.69;4963968;28;20050;-80
2022/07/12 08:12:29;;;;;;;4.20;3.40;;;;;;;28.13;42.71;99201.09;4967227;28;20613;-79
2022/07/12 08:14:55;;;;;;;5.63;3.40;;;;;;;28.85;43.68;99189.97;4980394;28;20070;-77
2022/07/12 08:17:21;;;;;;;6.85;3.40;;;;;;;29.98;42.21;99192.47;4982247;28;20101;-77
2022/07/12 08:19:47;;;;;;;4.90;3.25;;;;;;;31.42;40.25;99176.91;4984046;28;21128;-77
2022/07/12 08:22:15;;;;;;;4.00;3.10;;;;;;;32.90;38.75;99207.56;4952487;28;20045;-78
2022/07/12 08:24:41;;;;;;;4.60;3.22;;;;;;;32.48;36.88;99189.81;4963251;28;20494;-77
2022/07/12 08:27:07;;;;;;;5.93;3.60;;;;;;;31.51;37.97;99201.97;4984428;28;20830;-79
2022/07/12 08:29:33;;;;;;;6.85;3.58;;;;;;;30.87;39.03;99195.13;4981113;28;20110;-77
2022/07/12 08:31:59;;;;;;;7.07;3.97;;;;;;;30.30;39.63;99223.25;4958366;28;20102;-77
2022/07/12 08:34:26;;;;;;;6.35;3.65;;;;;;;29.86;41.30;99215.94;4976740;28;20046;-78
2022/07/12 08:36:52;;;;;;;5.25;3.33;;;;;;;30.68;40.88;99200.72;4981617;28;20081;-79
2022/07/12 08:39:18;;;;;;;3.85;3.45;;;;;;;31.78;37.88;99206.25;4980866;28;20038;-77
2022/07/12 08:41:44;;;;;;;8.68;3.60;;;;;;;32.49;36.27;99202.25;4963774;28;20061;-77
2022/07/12 08:44:10;;;;;;;3.67;3.15;;;;;;;32.92;36.63;99208.25;4963613;28;20046;-76
2022/07/12 08:46:36;;;;;;;6.07;3.90;;;;;;;32.81;36.58;99214.81;4982436;28;20086;-79
2022/07/12 08:49:09;;;;;;;5.60;3.03;;;;;;;33.62;35.81;99201.22;4964392;28;20490;-77
2022/07/12 08:51:35;;;;;;;4.53;3.10;;;;;;;33.89;34.42;99209.78;4969696;28;20051;-79
2022/07/12 08:54:12;;;;;;;4.85;3.00;;;;;;;33.11;34.16;99223.16;4969093;28;20038;-76
2022/07/12 08:56:40;;;;;;;5.47;3.30;;;;;;;33.19;34.73;99244.69;4967551;28;20178;-77
2022/07/12 08:59:17;;;;;;;5.63;3.75;;;;;;;32.71;34.24;99220.38;4967815;28;20434;-77
2022/07/12 09:01:45;;;;;;;3.92;2.83;;;;;;;33.68;33.47;99233.84;4967630;28;20057;-78
2022/07/12 09:04:23;;;;;;;4.07;3.20;;;;;;;34.74;32.47;99215.19;4965028;28;20042;-78
2022/07/12 09:06:50;;;;;;;7.28;3.33;;;;;;;34.50;32.00;99214.41;4965933;28;20655;-76
2022/07/12 09:09:27;;;;;;;4.40;3.53;;;;;;;33.04;31.72;99223.00;4986335;28;20045;-77
2022/07/12 09:11:54;;;;;;;3.95;3.05;;;;;;;31.95;33.35;99227.78;4986070;28;20070;-78
2022/07/12 09:14:20;;;;;;;3.55;2.90;;;;;;;32.86;34.64;99225.94;4968017;28;20049;-79
2022/07/12 09:17:04;;;;;;;4.43;3.13;;;;;;;34.11;32.04;99234.28;4948700;28;20362;-77
2022/07/12 09:19:31;;;;;;;3.75;3.10;;;;;;;34.20;31.66;99221.56;4984126;28;20391;-79
2022/07/12 09:21:58;;;;;;;4.10;3.40;;;;;;;35.07;31.33;99249.97;4966851;28;20042;-78
2022/07/12 09:24:26;;;;;;;3.53;3.22;;;;;;;34.93;30.51;99237.28;4957264;28;20552;-77
2022/07/12 09:27:03;;;;;;;4.38;3.10;;;;;;;33.94;31.68;99229.00;4964453;28;20522;-79
2022/07/12 09:29:30;;;;;;;3.75;3.33;;;;;;;33.47;32.41;99235.31;4982926;28;20401;-81
2022/07/12 09:37:27;;;;;;;3.97;3.20;;;;;;;31.14;35.10;99241.63;5002059;28;20134;-77
2022/07/12 09:39:54;;;;;;;4.28;3.42;;;;;;;30.73;35.39;99262.84;5001070;28;20018;-81
2022/07/12 09:42:21;;;;;;;5.20;3.60;;;;;;;29.79;36.76;99240.84;4994971;28;20050;-78
2022/07/12 09:44:50;;;;;;;3.90;3.50;;;;;;;29.11;38.35;99249.06;5008065;28;20036;-77
2022/07/12 09:47:16;;;;;;;4.20;3.15;;;;;;;28.66;39.33;99255.06;4984826;28;20046;-78
2022/07/12 09:49:43;;;;;;;7.53;3.45;;;;;;;28.30;39.61;99269.03;5004484;28;20026;-79
2022/07/12 09:52:21;;;;;;;4.45;3.38;;;;;;;28.03;40.71;99272.38;4984894;28;20096;-79
2022/07/12 09:54:53;;;;;;;8.57;4.15;;;;;;;27.86;41.62;99279.25;4974482;28;20100;-78
2022/07/12 09:57:29;;;;;;;4.45;3.38;;;;;;;27.97;42.44;99276.47;4968970;28;20035;-77
2022/07/12 09:59:58;;;;;;;4.20;2.92;;;;;;;29.91;41.23;99274.47;4966818;28;20144;-79
2022/07/12 10:02:25;;;;;;;3.83;2.97;;;;;;;31.18;37.12;99269.88;4968286;28;20382;-78
2022/07/12 10:04:52;;;;;;;4.22;2.97;;;;;;;30.92;36.84;99270.69;4963740;28;20082;-79
2022/07/12 10:07:19;;;;;;;5.05;2.72;;;;;;;30.82;35.48;99298.66;4967916;28;20034;-78
2022/07/12 10:09:51;;;;;;;5.53;3.20;;;;;;;31.13;36.10;99282.91;4962555;28;20491;-79
2022/07/12 10:12:20;;;;;;;3.78;2.55;;;;;;;31.97;35.02;99277.72;4968258;28;20054;-76
2022/07/12 10:14:51;;;;;;;4.82;2.63;;;;;;;33.04;34.22;99267.97;4986688;28;20108;-79
2022/07/12 10:17:24;;;;;;;6.22;2.75;;;;;;;32.78;33.32;99274.41;4984941;28;20042;-79
2022/07/12 10:20:23;;;;;;;2.30;2.10;;;;;;;33.72;31.89;99271.09;4983347;28;20125;-79
2022/07/12 10:23:16;;;;;;;2.55;1.63;;;;;;;33.49;31.41;99284.50;4954646;28;20486;-78
2022/07/12 10:25:42;;;;;;;3.92;1.48;;;;;;;32.65;30.73;99287.56;4982007;28;20043;-78
2022/07/12 10:28:08;;;;;;;6.97;1.63;;;;;;;32.51;30.67;99291.75;4970395;28;20050;-77
2022/07/12 10:30:43;;;;;;;7.00;1.73;;;;;;;32.55;31.01;99309.25;4966443;28;20034;-77
2022/07/12 10:33:24;;;;;;;4.18;1.25;;;;;;;31.72;30.77;99303.69;4955689;28;20109;-79
2022/07/12 10:36:05;;;;;;;1.65;1.25;;;;;;;31.02;32.37;99326.97;4976526;28;20089;-77
2022/07/12 10:38:35;;;;;;;3.63;1.23;;;;;;;30.34;33.23;99336.47;4976554;28;20038;-80
2022/07/12 10:41:18;;;;;;;3.15;1.67;;;;;;;29.46;33.75;99341.28;4956008;28;20065;-78
2022/07/12 10:44:11;;;;;;;4.68;1.25;;;;;;;28.92;34.54;99318.72;4976070;28;20105;-79
2022/07/12 10:46:59;;;;;;;2.72;1.27;;;;;;;28.23;35.29;99278.63;4984532;28;20533;-79
2022/07/12 10:49:27;;;;;;;2.55;1.23;;;;;;;28.12;35.96;99317.03;4979530;28;20042;-77
2022/07/12 10:52:14;;;;;;;2.45;1.30;;;;;;;27.87;35.78;99313.88;4973220;28;20506;-78
2022/07/12 10:55:12;;;;;;;1.42;1.17;;;;;;;27.63;36.74;99315.06;4955411;28;20519;-78
2022/07/12 10:57:49;;;;;;;1.17;1.08;;;;;;;27.34;36.51;99353.16;4965522;28;20050;-78
2022/07/12 11:00:16;;;;;;;4.78;1.10;;;;;;;26.82;36.56;99272.19;4954219;28;20053;-80
2022/07/12 11:02:43;;;;;;;1.33;1.00;;;;;;;26.99;36.03;99340.16;4938493;28;20034;-77
2022/07/12 11:05:10;;;;;;;2.63;1.00;;;;;;;26.86;36.42;99327.84;4969206;28;20082;-78
2022/07/12 11:07:36;;;;;;;0.90;0.90;;;;;;;26.91;37.00;99330.13;4983996;28;20134;-78
2022/07/12 11:10:03;;;;;;;2.97;1.30;;;;;;;27.09;37.57;99309.03;4955477;28;20056;-80
2022/07/12 11:12:30;;;;;;;2.25;1.10;;;;;;;27.27;37.57;99330.59;4976835;28;20046;-77
2022/07/12 11:14:59;;;;;;;2.72;1.00;;;;;;;27.12;38.06;99331.94;4946513;28;20047;-79
2022/07/12 11:17:27;;;;;;;2.60;1.20;;;;;;;27.00;37.65;99328.50;4967431;28;20087;-78
2022/07/12 11:20:09;;;;;;;1.48;1.20;;;;;;;26.95;38.15;99333.38;4944743;28;20082;-78
2022/07/12 11:22:41;;;;;;;1.30;1.10;;;;;;;26.90;37.95;99333.78;4950384;28;20059;-75
2022/07/12 11:25:12;;;;;;;1.42;1.10;;;;;;;26.90;38.56;99331.09;4962725;28;20051;-79
2022/07/12 11:27:39;;;;;;;1.42;1.20;;;;;;;26.88;38.62;99333.91;4968546;28;20030;-78
2022/07/12 11:30:06;;;;;;;2.97;1.27;;;;;;;26.87;38.66;99316.22;4984555;28;20160;-77
2022/07/12 11:32:41;;;;;;;4.68;1.40;;;;;;;27.00;39.21;99334.69;4970171;28;20050;-80
2022/07/12 11:35:21;;;;;;;2.47;1.20;;;;;;;26.94;39.48;99343.22;4962328;28;20451;-79
2022/07/12 11:37:55;;;;;;;2.97;1.33;;;;;;;27.00;39.34;99334.69;4942336;28;20085;-82
2022/07/12 11:40:25;;;;;;;4.07;1.27;;;;;;;26.97;39.12;99350.97;4945629;28;20046;-79
2022/07/12 11:42:53;;;;;;;3.05;1.20;;;;;;;26.76;39.19;99357.09;4949118;28;20735;-79
2022/07/12 11:45:19;;;;;;;1.45;1.30;;;;;;;26.76;39.44;99346.44;4961814;28;20051;-83